0850 UTC 29 August 2016 found at http://aviationweather.gov/adds/metars/
 
METAR text: KAFF 290758Z AUTO 21008KT 9SM -RA OVC070 12/11 A3043 RMK AO2 SLP232 P0016 T01160113
Conditions at: KAFF (USAF ACADEMY/COS, CO, US) observed 0758 UTC 29 August 2016
Temperature: 11.6°C (53°F)
Dewpoint: 11.3°C (52°F) [RH = 98%]
Pressure (altimeter): 30.43 inches Hg (1030.6 mb[Sea-level pressure: 1023.2 mb]
Winds: from the SSW (210 degrees) at 9 MPH (8 knots; 4.2 m/s)
Visibility: 9 miles (14 km)
Ceiling: 7000 feet AGL
Clouds: overcast cloud deck at 7000 feet AGL
Weather: -RA  (light rain)

METAR text: KAFF 290658Z AUTO 06003KT 8SM RA OVC070 12/11 A3044 RMK AO2 SLP231 P0014 T01200114 402600109
Conditions at: KAFF (USAF ACADEMY/COS, CO, US) observed 0658 UTC 29 August 2016
Temperature: 12.0°C (54°F)
Dewpoint: 11.4°C (53°F) [RH = 96%]
Pressure (altimeter): 30.44 inches Hg (1030.9 mb[Sea-level pressure: 1023.1 mb]
Winds: from the ENE (60 degrees) at 3 MPH (3 knots; 1.6 m/s)
Visibility: 8 miles (13 km)
Ceiling: 7000 feet AGL
Clouds: overcast cloud deck at 7000 feet AGL
Weather: RA  (rain)

METAR text: KAFF 290558Z AUTO 26004KT 5SM RA BR OVC060 12/11 A3043 RMK AO2 LTG DSNT NW-NE TSE37 SLP222 P0011 60027 T01200110 10232 20118 51035
Conditions at: KAFF (USAF ACADEMY/COS, CO, US) observed 0558 UTC 29 August 2016
Temperature: 12.0°C (54°F)
Dewpoint: 11.0°C (52°F) [RH = 94%]
Pressure (altimeter): 30.43 inches Hg (1030.6 mb[Sea-level pressure: 1022.2 mb]
Winds: from the W (260 degrees) at 5 MPH (4 knots; 2.1 m/s)
Visibility: 5 miles (8 km)
Ceiling: 6000 feet AGL
Clouds: overcast cloud deck at 6000 feet AGL
Weather: RA BR  (rain, mist)

METAR text: KAFF 290537Z AUTO 09002KT 6SM -RA BR VCTS OVC060 12/11 A3044 RMK AO2 LTG DSNT NE-E TSE37
Conditions at: KAFF (USAF ACADEMY/COS, CO, US) observed 0537 UTC 29 August 2016
Temperature: 12.0°C (54°F)
Dewpoint: 11.0°C (52°F) [RH = 94%]
Pressure (altimeter): 30.44 inches Hg (1030.9 mb)
Winds: from the E (90 degrees) at 2 MPH (2 knots; 1.0 m/s)
Visibility: 6 miles (10 km)
Ceiling: 6000 feet AGL
Clouds: overcast cloud deck at 6000 feet AGL
Weather: -RA BR VCTS  (light rain, mist, thunderstorm in vicinity)

METAR text: KAFF 290458Z AUTO 27007KT 9SM -TSRA OVC065 12/10 A3042 RMK AO2 PK WND 21038/0359 LTG DSNT NW-E AND S SLP224 P0013 T01240098
Conditions at: KAFF (USAF ACADEMY/COS, CO, US) observed 0458 UTC 29 August 2016
Temperature: 12.4°C (54°F)
Dewpoint: 9.8°C (50°F) [RH = 84%]
Pressure (altimeter): 30.42 inches Hg (1030.2 mb[Sea-level pressure: 1022.4 mb]
Winds: from the W (270 degrees) at 8 MPH (7 knots; 3.6 m/s)
Visibility: 9 miles (14 km)
Ceiling: 6500 feet AGL
Clouds: overcast cloud deck at 6500 feet AGL
Weather: -TSRA  (light rain associated with thunderstorm(s))

METAR text: KAFF 290433Z AUTO 22006KT 9SM -TSRA SCT002 OVC065 12/10 A3041 RMK AO2 LTG DSNT SW-SE
Conditions at: KAFF (USAF ACADEMY/COS, CO, US) observed 0433 UTC 29 August 2016
Temperature: 12.0°C (54°F)
Dewpoint: 10.0°C (50°F) [RH = 88%]
Pressure (altimeter): 30.41 inches Hg (1029.9 mb)
Winds: from the SW (220 degrees) at 7 MPH (6 knots; 3.1 m/s)
Visibility: 9 miles (14 km)
Ceiling: 6500 feet AGL
Clouds: scattered clouds at 200 feet AGL
overcast cloud deck at 6500 feet AGL
Weather: -TSRA  (light rain associated with thunderstorm(s))

METAR text: KAFF 290428Z AUTO 22008KT 6SM -TSRA BR BKN002 OVC065 12/10 A3041 RMK AO2 LTG DSNT ALQDS CIG 002V065 BKN V SCT PRESRR
Conditions at: KAFF (USAF ACADEMY/COS, CO, US) observed 0428 UTC 29 August 2016
Temperature: 12.0°C (54°F)
Dewpoint: 10.0°C (50°F) [RH = 88%]
Pressure (altimeter): 30.41 inches Hg (1029.9 mb)
Winds: from the SW (220 degrees) at 9 MPH (8 knots; 4.2 m/s)
Visibility: 6 miles (10 km)
Ceiling: 200 feet AGL
Clouds: broken clouds at 200 feet AGL
overcast cloud deck at 6500 feet AGL
Weather: -TSRA BR  (light rain associated with thunderstorm(s), mist)

METAR text: KAFF 290423Z AUTO 23013KT 5SM +TSRA BR SCT002 OVC065 12/10 A3038 RMK AO2 LTG DSNT ALQDS
Conditions at: KAFF (USAF ACADEMY/COS, CO, US) observed 0423 UTC 29 August 2016
Temperature: 12.0°C (54°F)
Dewpoint: 10.0°C (50°F) [RH = 88%]
Pressure (altimeter): 30.38 inches Hg (1028.9 mb)
Winds: from the SW (230 degrees) at 15 MPH (13 knots; 6.8 m/s)
Visibility: 5 miles (8 km)
Ceiling: 6500 feet AGL
Clouds: scattered clouds at 200 feet AGL
overcast cloud deck at 6500 feet AGL
Weather: +TSRA BR  (heavy rain associated with thunderstorm(s), mist)

METAR text: KAFF 290418Z AUTO 23017KT 4SM +TSRA SCT002 OVC065 12/10 A3037 RMK AO2 LTG DSNT E-N
Conditions at: KAFF (USAF ACADEMY/COS, CO, US) observed 0418 UTC 29 August 2016
Temperature: 12.0°C (54°F)
Dewpoint: 10.0°C (50°F) [RH = 88%]
Pressure (altimeter): 30.37 inches Hg (1028.5 mb)
Winds: from the SW (230 degrees) at 20 MPH (17 knots; 8.8 m/s)
Visibility: 4 miles (6 km)
Ceiling: 6500 feet AGL
Clouds: scattered clouds at 200 feet AGL
overcast cloud deck at 6500 feet AGL
Weather: +TSRA  (heavy rain associated with thunderstorm(s))

METAR text: KAFF 290413Z AUTO 23017G33KT 3SM +TSRA SCT002 OVC070 12/09 A3038 RMK AO2 LTG DSNT W-S PRESRR
Conditions at: KAFF (USAF ACADEMY/COS, CO, US) observed 0413 UTC 29 August 2016
Temperature: 12.0°C (54°F)
Dewpoint: 9.0°C (48°F) [RH = 82%]
Pressure (altimeter): 30.38 inches Hg (1028.9 mb)
Winds: from the SW (230 degrees) at 20 MPH (17 knots; 8.8 m/sgusting to 38 MPH (33 knots; 17.2 m/s)
Visibility: 3 miles (5 km)
Ceiling: 7000 feet AGL
Clouds: scattered clouds at 200 feet AGL
overcast cloud deck at 7000 feet AGL
Weather: +TSRA  (heavy rain associated with thunderstorm(s))

METAR text: KAFF 290403Z AUTO 24027G38KT 2 1/2SM +TSRA FEW001 OVC065 14/10 A3036 RMK AO2 VIS 2 1/2V8 LTG DSNT ALQDS
Conditions at: KAFF (USAF ACADEMY/COS, CO, US) observed 0403 UTC 29 August 2016
Temperature: 14.0°C (57°F)
Dewpoint: 10.0°C (50°F) [RH = 77%]
Pressure (altimeter): 30.36 inches Hg (1028.2 mb)
Winds: from the WSW (240 degrees) at 31 MPH (27 knots; 14.0 m/sgusting to 44 MPH (38 knots; 19.8 m/s)
Visibility: 2.50 miles (4.02 km)
Ceiling: 6500 feet AGL
Clouds: few clouds at 100 feet AGL
overcast cloud deck at 6500 feet AGL
Weather: +TSRA  (heavy rain associated with thunderstorm(s))

METAR text: KAFF 290358Z AUTO 22020G28KT 7SM TSRA OVC065 15/10 A3035 RMK AO2 PK WND 21029/58 LTG DSNT ALQDS RAB21 TSB33 PRESRR SLP194 P0003
Conditions at: KAFF (USAF ACADEMY/COS, CO, US) observed 0358 UTC 29 August 2016
Temperature: 15.0°C (59°F)
Dewpoint: 10.0°C (50°F) [RH = 72%]
Pressure (altimeter): 30.35 inches Hg (1027.9 mb[Sea-level pressure: 1019.4 mb]
Winds: from the SW (220 degrees) at 23 MPH (20 knots; 10.4 m/sgusting to 32 MPH (28 knots; 14.6 m/s)
Visibility: 7 miles (11 km)
Ceiling: 6500 feet AGL
Clouds: overcast cloud deck at 6500 feet AGL
Weather: TSRA  (rain associated with thunderstorm(s))

METAR text: KAFF 290353Z AUTO 24017G24KT 8SM -TSRA FEW002 OVC065 15/09 A3033 RMK AO2 WSHFT 41 LTG DSNT NW-SW RAB21 TSB33 PRESRR
Conditions at: KAFF (USAF ACADEMY/COS, CO, US) observed 0353 UTC 29 August 2016
Temperature: 15.0°C (59°F)
Dewpoint: 9.0°C (48°F) [RH = 67%]
Pressure (altimeter): 30.33 inches Hg (1027.2 mb)
Winds: from the WSW (240 degrees) at 20 MPH (17 knots; 8.8 m/sgusting to 28 MPH (24 knots; 12.5 m/s)
Visibility: 8 miles (13 km)
Ceiling: 6500 feet AGL
Clouds: few clouds at 200 feet AGL
overcast cloud deck at 6500 feet AGL
Weather: -TSRA  (light rain associated with thunderstorm(s))

METAR text: KAFF 290333Z AUTO 32012KT 10SM -TSRA FEW002 BKN060 OVC080 16/10 A3030 RMK AO2 LTG DSNT E-SW RAB21 TSB33
Conditions at: KAFF (USAF ACADEMY/COS, CO, US) observed 0333 UTC 29 August 2016
Temperature: 16.0°C (61°F)
Dewpoint: 10.0°C (50°F) [RH = 68%]
Pressure (altimeter): 30.30 inches Hg (1026.2 mb)
Winds: from the NW (320 degrees) at 14 MPH (12 knots; 6.2 m/s)
Visibility: 10 or more miles (16+ km)
Ceiling: 6000 feet AGL
Clouds: few clouds at 200 feet AGL
broken clouds at 6000 feet AGL
overcast cloud deck at 8000 feet AGL
Weather: -TSRA  (light rain associated with thunderstorm(s))

METAR text: KAFF 290331Z AUTO 32014KT 10SM -RA VCTS SCT002 BKN060 OVC080 16/10 A3030 RMK AO2 WSHFT 23 LTG DSNT E-SW RAB21
Conditions at: KAFF (USAF ACADEMY/COS, CO, US) observed 0331 UTC 29 August 2016
Temperature: 16.0°C (61°F)
Dewpoint: 10.0°C (50°F) [RH = 68%]
Pressure (altimeter): 30.30 inches Hg (1026.2 mb)
Winds: from the NW (320 degrees) at 16 MPH (14 knots; 7.3 m/s)
Visibility: 10 or more miles (16+ km)
Ceiling: 6000 feet AGL
Clouds: scattered clouds at 200 feet AGL
broken clouds at 6000 feet AGL
overcast cloud deck at 8000 feet AGL
Weather: -RA VCTS  (light rain, thunderstorm in vicinity)

METAR text: KAFF 290321Z AUTO 35009KT 10SM -RA SCT070 OVC080 18/08 A3031 RMK AO2 LTG DSNT SE-S RAB21
Conditions at: KAFF (USAF ACADEMY/COS, CO, US) observed 0321 UTC 29 August 2016
Temperature: 18.0°C (64°F)
Dewpoint: 8.0°C (46°F) [RH = 52%]
Pressure (altimeter): 30.31 inches Hg (1026.5 mb)
Winds: from the N (350 degrees) at 10 MPH (9 knots; 4.7 m/s)
Visibility: 10 or more miles (16+ km)
Ceiling: 8000 feet AGL
Clouds: scattered clouds at 7000 feet AGL
overcast cloud deck at 8000 feet AGL
Weather: -RA  (light rain)

METAR text: KAFF 290258Z AUTO 36006KT 10SM OVC090 17/07 A3030 RMK AO2 LTG DSNT SE-SW SLP181 T01730074 52019
Conditions at: KAFF (USAF ACADEMY/COS, CO, US) observed 0258 UTC 29 August 2016
Temperature: 17.3°C (63°F)
Dewpoint: 7.4°C (45°F) [RH = 52%]
Pressure (altimeter): 30.30 inches Hg (1026.2 mb[Sea-level pressure: 1018.1 mb]
Winds: from the N (360 degrees) at 7 MPH (6 knots; 3.1 m/s)
Visibility: 10 or more miles (16+ km)
Ceiling: 9000 feet AGL
Clouds: overcast cloud deck at 9000 feet AGL
Weather: automated observation with no human augmentation;
there may or may not be significant weather present at this time

METAR text: KAFF 290158Z AUTO 36005KT 10SM CLR 18/08 A3027 RMK AO2 LTG DSNT SE SLP181 T01790080
Conditions at: KAFF (USAF ACADEMY/COS, CO, US) observed 0158 UTC 29 August 2016
Temperature: 17.9°C (64°F)
Dewpoint: 8.0°C (46°F) [RH = 52%]
Pressure (altimeter): 30.27 inches Hg (1025.1 mb[Sea-level pressure: 1018.1 mb]
Winds: from the N (360 degrees) at 6 MPH (5 knots; 2.6 m/s)
Visibility: 10 or more miles (16+ km)
Ceiling: at least 12,000 feet AGL
Clouds: sky clear below 12,000 feet AGL
Weather: automated observation with no human augmentation;
there may or may not be significant weather present at this time

METAR text: KAFF 290058Z AUTO 00000KT 10SM CLR 21/07 A3025 RMK AO2 SLP169 T02090066
Conditions at: KAFF (USAF ACADEMY/COS, CO, US) observed 0058 UTC 29 August 2016
Temperature: 20.9°C (70°F)
Dewpoint: 6.6°C (44°F) [RH = 39%]
Pressure (altimeter): 30.25 inches Hg (1024.5 mb[Sea-level pressure: 1016.9 mb]
Winds: calm
Visibility: 10 or more miles (16+ km)
Ceiling: at least 12,000 feet AGL
Clouds: sky clear below 12,000 feet AGL
Weather: automated observation with no human augmentation;
there may or may not be significant weather present at this time

METAR text: KAFF 282358Z AUTO 34007KT 10SM CLR 23/05 A3024 RMK AO2 SLP160 60012 T02340046 10260 20190 58004
Conditions at: KAFF (USAF ACADEMY/COS, CO, US) observed 2358 UTC 28 August 2016
Temperature: 23.4°C (74°F)
Dewpoint: 4.6°C (40°F) [RH = 29%]
Pressure (altimeter): 30.24 inches Hg (1024.1 mb[Sea-level pressure: 1016.0 mb]
Winds: from the NNW (340 degrees) at 8 MPH (7 knots; 3.6 m/s)
Visibility: 10 or more miles (16+ km)
Ceiling: at least 12,000 feet AGL
Clouds: sky clear below 12,000 feet AGL
Weather: automated observation with no human augmentation;
there may or may not be significant weather present at this time

METAR text: KAFF 282258Z AUTO 01011KT 10SM CLR 23/05 A3023 RMK AO2 SLP157 T02300049
Conditions at: KAFF (USAF ACADEMY/COS, CO, US) observed 2258 UTC 28 August 2016
Temperature: 23.0°C (73°F)
Dewpoint: 4.9°C (41°F) [RH = 31%]
Pressure (altimeter): 30.23 inches Hg (1023.8 mb[Sea-level pressure: 1015.7 mb]
Winds: from the N (10 degrees) at 13 MPH (11 knots; 5.7 m/s)
Visibility: 10 or more miles (16+ km)
Ceiling: at least 12,000 feet AGL
Clouds: sky clear below 12,000 feet AGL
Weather: automated observation with no human augmentation;
there may or may not be significant weather present at this time

METAR text: KAFF 282158Z AUTO 36015KT 10SM FEW090 22/07 A3025 RMK AO2 SLP169 T02180068
Conditions at: KAFF (USAF ACADEMY/COS, CO, US) observed 2158 UTC 28 August 2016
Temperature: 21.8°C (71°F)
Dewpoint: 6.8°C (44°F) [RH = 38%]
Pressure (altimeter): 30.25 inches Hg (1024.5 mb[Sea-level pressure: 1016.9 mb]
Winds: from the N (360 degrees) at 17 MPH (15 knots; 7.8 m/s)
Visibility: 10 or more miles (16+ km)
Ceiling: at least 12,000 feet AGL
Clouds: few clouds at 9000 feet AGL
Weather: automated observation with no human augmentation;
there may or may not be significant weather present at this time

METAR text: KAFF 282058Z AUTO 33017KT 10SM FEW100 21/09 A3025 RMK AO2 LTG DSNT NE AND SW RAB34E48 SLP174 P0000 60012 T02140085 50005
Conditions at: KAFF (USAF ACADEMY/COS, CO, US) observed 2058 UTC 28 August 2016
Temperature: 21.4°C (71°F)
Dewpoint: 8.5°C (47°F) [RH = 44%]
Pressure (altimeter): 30.25 inches Hg (1024.5 mb[Sea-level pressure: 1017.4 mb]
Winds: from the NNW (330 degrees) at 20 MPH (17 knots; 8.8 m/s)
Visibility: 10 or more miles (16+ km)
Ceiling: at least 12,000 feet AGL
Clouds: few clouds at 10000 feet AGL
Weather: automated observation with no human augmentation;
there may or may not be significant weather present at this time

METAR text: KAFF 282048Z AUTO 33013G20KT 10SM SCT090 BKN110 21/08 A3025 RMK AO2 LTG DSNT N-NE AND SW RAB34E48
Conditions at: KAFF (USAF ACADEMY/COS, CO, US) observed 2048 UTC 28 August 2016
Temperature: 21.0°C (70°F)
Dewpoint: 8.0°C (46°F) [RH = 43%]
Pressure (altimeter): 30.25 inches Hg (1024.5 mb)
Winds: from the NNW (330 degrees) at 15 MPH (13 knots; 6.8 m/sgusting to 23 MPH (20 knots; 10.4 m/s)
Visibility: 10 or more miles (16+ km)
Ceiling: 11000 feet AGL
Clouds: scattered clouds at 9000 feet AGL
broken clouds at 11000 feet AGL
Weather: automated observation with no human augmentation;
there may or may not be significant weather present at this time

METAR text: KAFF 282034Z AUTO 34014KT 10SM -RA FEW027 BKN090 21/10 A3025 RMK AO2 LTG DSNT SE AND SW RAB34
Conditions at: KAFF (USAF ACADEMY/COS, CO, US) observed 2034 UTC 28 August 2016
Temperature: 21.0°C (70°F)
Dewpoint: 10.0°C (50°F) [RH = 49%]
Pressure (altimeter): 30.25 inches Hg (1024.5 mb)
Winds: from the NNW (340 degrees) at 16 MPH (14 knots; 7.3 m/s)
Visibility: 10 or more miles (16+ km)
Ceiling: 9000 feet AGL
Clouds: few clouds at 2700 feet AGL
broken clouds at 9000 feet AGL
Weather: -RA  (light rain)

METAR text: KAFF 281958Z AUTO 05012KT 10SM VCTS FEW047 BKN095 21/09 A3026 RMK AO2 LTG DSNT NW-NE AND SW RAB1858E44 TSB06E53 SLP178 P0012 T02140086
Conditions at: KAFF (USAF ACADEMY/COS, CO, US) observed 1958 UTC 28 August 2016
Temperature: 21.4°C (71°F)
Dewpoint: 8.6°C (47°F) [RH = 44%]
Pressure (altimeter): 30.26 inches Hg (1024.8 mb[Sea-level pressure: 1017.8 mb]
Winds: from the NE (50 degrees) at 14 MPH (12 knots; 6.2 m/s)
Visibility: 10 or more miles (16+ km)
Ceiling: 9500 feet AGL
Clouds: few clouds at 4700 feet AGL
broken clouds at 9500 feet AGL
Weather: VCTS  (thunderstorm in vicinity)

METAR text: KAFF 281953Z AUTO 03013G16KT 10SM VCTS FEW050 BKN095 21/09 A3026 RMK AO2 LTG DSNT N-NE AND SW-W RAB1858E44 TSB06E53
Conditions at: KAFF (USAF ACADEMY/COS, CO, US) observed 1953 UTC 28 August 2016
Temperature: 21.0°C (70°F)
Dewpoint: 9.0°C (48°F) [RH = 46%]
Pressure (altimeter): 30.26 inches Hg (1024.8 mb)
Winds: from the NNE (30 degrees) at 15 MPH (13 knots; 6.8 m/sgusting to 18 MPH (16 knots; 8.3 m/s)
Visibility: 10 or more miles (16+ km)
Ceiling: 9500 feet AGL
Clouds: few clouds at 5000 feet AGL
broken clouds at 9500 feet AGL
Weather: VCTS  (thunderstorm in vicinity)

METAR text: KAFF 281944Z AUTO 05012G17KT 10SM TS FEW049 BKN100 21/07 A3026 RMK AO2 LTG DSNT N-NE AND SW-W RAB1858E44 TSB06
Conditions at: KAFF (USAF ACADEMY/COS, CO, US) observed 1944 UTC 28 August 2016
Temperature: 21.0°C (70°F)
Dewpoint: 7.0°C (45°F) [RH = 40%]
Pressure (altimeter): 30.26 inches Hg (1024.8 mb)
Winds: from the NE (50 degrees) at 14 MPH (12 knots; 6.2 m/sgusting to 20 MPH (17 knots; 8.8 m/s)
Visibility: 10 or more miles (16+ km)
Ceiling: 10000 feet AGL
Clouds: few clouds at 4900 feet AGL
broken clouds at 10000 feet AGL
Weather: TS  (thunderstorm)

METAR text: KAFF 281936Z AUTO 08012G16KT 6SM -TSRA FEW002 BKN055 BKN100 20/09 A3026 RMK AO2 LTG DSNT NE-E AND SW RAB1858 TSB06
Conditions at: KAFF (USAF ACADEMY/COS, CO, US) observed 1936 UTC 28 August 2016
Temperature: 20.0°C (68°F)
Dewpoint: 9.0°C (48°F) [RH = 49%]
Pressure (altimeter): 30.26 inches Hg (1024.8 mb)
Winds: from the E (80 degrees) at 14 MPH (12 knots; 6.2 m/sgusting to 18 MPH (16 knots; 8.3 m/s)
Visibility: 6 miles (10 km)
Ceiling: 5500 feet AGL
Clouds: few clouds at 200 feet AGL
broken clouds at 5500 feet AGL
broken clouds at 10000 feet AGL
Weather: -TSRA  (light rain associated with thunderstorm(s))

METAR text: KAFF 281931Z AUTO 06007KT 030V100 3SM -TSRA FEW002 BKN055 OVC095 20/09 A3026 RMK AO2 LTG DSNT NE-E AND SW RAB1858 TSB06
Conditions at: KAFF (USAF ACADEMY/COS, CO, US) observed 1931 UTC 28 August 2016
Temperature: 20.0°C (68°F)
Dewpoint: 9.0°C (48°F) [RH = 49%]
Pressure (altimeter): 30.26 inches Hg (1024.8 mb)
Winds: from the ENE (60 degrees) at 8 MPH (7 knots; 3.6 m/s)
Visibility: 3 miles (5 km)
Ceiling: 5500 feet AGL
Clouds: few clouds at 200 feet AGL
broken clouds at 5500 feet AGL
overcast cloud deck at 9500 feet AGL
Weather: -TSRA  (light rain associated with thunderstorm(s))

METAR text: KAFF 281921Z AUTO 28007KT 2SM -TSRA FEW002 BKN060 OVC090 19/10 A3025 RMK AO2 VIS 1 3/4V3 LTG DSNT W RAB1858 TSB06
Conditions at: KAFF (USAF ACADEMY/COS, CO, US) observed 1921 UTC 28 August 2016
Temperature: 19.0°C (66°F)
Dewpoint: 10.0°C (50°F) [RH = 56%]
Pressure (altimeter): 30.25 inches Hg (1024.5 mb)
Winds: from the W (280 degrees) at 8 MPH (7 knots; 3.6 m/s)
Visibility: 2.00 miles (3.22 km)
Ceiling: 6000 feet AGL
Clouds: few clouds at 200 feet AGL
broken clouds at 6000 feet AGL
overcast cloud deck at 9000 feet AGL
Weather: -TSRA  (light rain associated with thunderstorm(s))

METAR text: KAFF 281916Z AUTO 29007KT 2SM +TSRA FEW002 BKN065 OVC090 19/10 A3025 RMK AO2 VIS 2V4 LTG DSNT SW-W RAB1858 TSB06
Conditions at: KAFF (USAF ACADEMY/COS, CO, US) observed 1916 UTC 28 August 2016
Temperature: 19.0°C (66°F)
Dewpoint: 10.0°C (50°F) [RH = 56%]
Pressure (altimeter): 30.25 inches Hg (1024.5 mb)
Winds: from the WNW (290 degrees) at 8 MPH (7 knots; 3.6 m/s)
Visibility: 2.00 miles (3.22 km)
Ceiling: 6500 feet AGL
Clouds: few clouds at 200 feet AGL
broken clouds at 6500 feet AGL
overcast cloud deck at 9000 feet AGL
Weather: +TSRA  (heavy rain associated with thunderstorm(s))

METAR text: KAFF 281911Z AUTO 29008KT 3SM TSRA BKN070 OVC090 20/11 A3025 RMK AO2 LTG DSNT SW RAB1858 TSB06
Conditions at: KAFF (USAF ACADEMY/COS, CO, US) observed 1911 UTC 28 August 2016
Temperature: 20.0°C (68°F)
Dewpoint: 11.0°C (52°F) [RH = 56%]
Pressure (altimeter): 30.25 inches Hg (1024.5 mb)
Winds: from the WNW (290 degrees) at 9 MPH (8 knots; 4.2 m/s)
Visibility: 3 miles (5 km)
Ceiling: 7000 feet AGL
Clouds: broken clouds at 7000 feet AGL
overcast cloud deck at 9000 feet AGL
Weather: TSRA  (rain associated with thunderstorm(s))

METAR text: KAFF 281906Z AUTO 27009KT 4SM TSRA SCT065 OVC090 22/10 A3024 RMK AO2 LTG DSNT SW RAB1858 TSB06
Conditions at: KAFF (USAF ACADEMY/COS, CO, US) observed 1906 UTC 28 August 2016
Temperature: 22.0°C (72°F)
Dewpoint: 10.0°C (50°F) [RH = 46%]
Pressure (altimeter): 30.24 inches Hg (1024.1 mb)
Winds: from the W (270 degrees) at 10 MPH (9 knots; 4.7 m/s)
Visibility: 4 miles (6 km)
Ceiling: 9000 feet AGL
Clouds: scattered clouds at 6500 feet AGL
overcast cloud deck at 9000 feet AGL
Weather: TSRA  (rain associated with thunderstorm(s))

METAR text: KAFF 281859Z AUTO 28011KT 10SM -RA VCTS BKN090 OVC120 23/06 A3024 RMK AO2 LTG DSNT SE AND SW RAB58
Conditions at: KAFF (USAF ACADEMY/COS, CO, US) observed 1859 UTC 28 August 2016
Temperature: 23.0°C (73°F)
Dewpoint: 6.0°C (43°F) [RH = 33%]
Pressure (altimeter): 30.24 inches Hg (1024.1 mb)
Winds: from the W (280 degrees) at 13 MPH (11 knots; 5.7 m/s)
Visibility: 10 or more miles (16+ km)
Ceiling: 9000 feet AGL
Clouds: broken clouds at 9000 feet AGL
overcast cloud deck at 12000 feet AGL
Weather: -RA VCTS  (light rain, thunderstorm in vicinity)

METAR text: KAFF 281858Z AUTO 28009KT 10SM VCTS BKN090 OVC120 23/06 A3023 RMK AO2 LTG DSNT SE AND SW SLP162 T02290060
Conditions at: KAFF (USAF ACADEMY/COS, CO, US) observed 1858 UTC 28 August 2016
Temperature: 22.9°C (73°F)
Dewpoint: 6.0°C (43°F) [RH = 33%]
Pressure (altimeter): 30.23 inches Hg (1023.8 mb[Sea-level pressure: 1016.2 mb]
Winds: from the W (280 degrees) at 10 MPH (9 knots; 4.7 m/s)
Visibility: 10 or more miles (16+ km)
Ceiling: 9000 feet AGL
Clouds: broken clouds at 9000 feet AGL
overcast cloud deck at 12000 feet AGL
Weather: VCTS  (thunderstorm in vicinity)

METAR text: KAFF 281758Z AUTO VRB04KT 10SM FEW210 26/04 A3023 RMK AO2 LTG DSNT SW SLP152 60000 T02550039 10255 20117 57007
Conditions at: KAFF (USAF ACADEMY/COS, CO, US) observed 1758 UTC 28 August 2016
Temperature: 25.5°C (78°F)
Dewpoint: 3.9°C (39°F) [RH = 25%]
Pressure (altimeter): 30.23 inches Hg (1023.8 mb[Sea-level pressure: 1015.2 mb]
Winds: variable direction winds at 5 MPH (4 knots; 2.1 m/s)
Visibility: 10 or more miles (16+ km)
Ceiling: at least 12,000 feet AGL
Clouds: few clouds at 21000 feet AGL
Weather: automated observation with no human augmentation;
there may or may not be significant weather present at this time

METAR text: KAFF 281658Z AUTO 01007KT 10SM CLR 24/04 A3024 RMK AO2 SLP150 T02400040
Conditions at: KAFF (USAF ACADEMY/COS, CO, US) observed 1658 UTC 28 August 2016
Temperature: 24.0°C (75°F)
Dewpoint: 4.0°C (39°F) [RH = 27%]
Pressure (altimeter): 30.24 inches Hg (1024.1 mb[Sea-level pressure: 1015.0 mb]
Winds: from the N (10 degrees) at 8 MPH (7 knots; 3.6 m/s)
Visibility: 10 or more miles (16+ km)
Ceiling: at least 12,000 feet AGL
Clouds: sky clear below 12,000 feet AGL
Weather: automated observation with no human augmentation;
there may or may not be significant weather present at this time

METAR text: KAFF 281558Z AUTO 02008KT 310V030 10SM CLR 22/05 A3025 RMK AO2 SLP153 T02210047
Conditions at: KAFF (USAF ACADEMY/COS, CO, US) observed 1558 UTC 28 August 2016
Temperature: 22.1°C (72°F)
Dewpoint: 4.7°C (40°F) [RH = 32%]
Pressure (altimeter): 30.25 inches Hg (1024.5 mb[Sea-level pressure: 1015.3 mb]
Winds: from the NNE (20 degrees) at 9 MPH (8 knots; 4.2 m/s)
Visibility: 10 or more miles (16+ km)
Ceiling: at least 12,000 feet AGL
Clouds: sky clear below 12,000 feet AGL
Weather: automated observation with no human augmentation;
there may or may not be significant weather present at this time

METAR text: KAFF 281458Z AUTO 01003KT 10SM CLR 18/09 A3026 RMK AO2 SLP167 60000 T01780094 50005
Conditions at: KAFF (USAF ACADEMY/COS, CO, US) observed 1458 UTC 28 August 2016
Temperature: 17.8°C (64°F)
Dewpoint: 9.4°C (49°F) [RH = 58%]
Pressure (altimeter): 30.26 inches Hg (1024.8 mb[Sea-level pressure: 1016.7 mb]
Winds: from the N (10 degrees) at 3 MPH (3 knots; 1.6 m/s)
Visibility: 10 or more miles (16+ km)
Ceiling: at least 12,000 feet AGL
Clouds: sky clear below 12,000 feet AGL
Weather: automated observation with no human augmentation;
there may or may not be significant weather present at this time

METAR text: KAFF 281358Z AUTO 01004KT 10SM BKN100 OVC120 13/10 A3026 RMK AO2 SLP172 T01340096
Conditions at: KAFF (USAF ACADEMY/COS, CO, US) observed 1358 UTC 28 August 2016
Temperature: 13.4°C (56°F)
Dewpoint: 9.6°C (49°F) [RH = 78%]
Pressure (altimeter): 30.26 inches Hg (1024.8 mb[Sea-level pressure: 1017.2 mb]
Winds: from the N (10 degrees) at 5 MPH (4 knots; 2.1 m/s)
Visibility: 10 or more miles (16+ km)
Ceiling: 10000 feet AGL
Clouds: broken clouds at 10000 feet AGL
overcast cloud deck at 12000 feet AGL
Weather: automated observation with no human augmentation;
there may or may not be significant weather present at this time

METAR text: KAFF 281258Z AUTO 03003KT 10SM OVC100 13/10 A3026 RMK AO2 RAB42E43DZB43E53 SLP167 P0000 T01250097
Conditions at: KAFF (USAF ACADEMY/COS, CO, US) observed 1258 UTC 28 August 2016
Temperature: 12.5°C (54°F)
Dewpoint: 9.7°C (49°F) [RH = 83%]
Pressure (altimeter): 30.26 inches Hg (1024.8 mb[Sea-level pressure: 1016.7 mb]
Winds: from the NNE (30 degrees) at 3 MPH (3 knots; 1.6 m/s)
Visibility: 10 or more miles (16+ km)
Ceiling: 10000 feet AGL
Clouds: overcast cloud deck at 10000 feet AGL
Weather: automated observation with no human augmentation;
there may or may not be significant weather present at this time

METAR text: KAFF 281253Z AUTO 03003KT 10SM BKN100 12/10 A3026 RMK AO2 RAB42E43DZB43E53
Conditions at: KAFF (USAF ACADEMY/COS, CO, US) observed 1253 UTC 28 August 2016
Temperature: 12.0°C (54°F)
Dewpoint: 10.0°C (50°F) [RH = 88%]
Pressure (altimeter): 30.26 inches Hg (1024.8 mb)
Winds: from the NNE (30 degrees) at 3 MPH (3 knots; 1.6 m/s)
Visibility: 10 or more miles (16+ km)
Ceiling: 10000 feet AGL
Clouds: broken clouds at 10000 feet AGL
Weather: automated observation with no human augmentation;
there may or may not be significant weather present at this time

METAR text: KAFF 281242Z AUTO 04003KT 10SM -RA OVC100 12/09 A3026 RMK AO2 RAB42
Conditions at: KAFF (USAF ACADEMY/COS, CO, US) observed 1242 UTC 28 August 2016
Temperature: 12.0°C (54°F)
Dewpoint: 9.0°C (48°F) [RH = 82%]
Pressure (altimeter): 30.26 inches Hg (1024.8 mb)
Winds: from the NE (40 degrees) at 3 MPH (3 knots; 1.6 m/s)
Visibility: 10 or more miles (16+ km)
Ceiling: 10000 feet AGL
Clouds: overcast cloud deck at 10000 feet AGL
Weather: -RA  (light rain)

METAR text: KAFF 281158Z AUTO 35003KT 10SM OVC090 12/09 A3024 RMK AO2 SLP160 T01230091 10146 20108 53008
Conditions at: KAFF (USAF ACADEMY/COS, CO, US) observed 1158 UTC 28 August 2016
Temperature: 12.3°C (54°F)
Dewpoint: 9.1°C (48°F) [RH = 81%]
Pressure (altimeter): 30.24 inches Hg (1024.1 mb[Sea-level pressure: 1016.0 mb]
Winds: from the N (350 degrees) at 3 MPH (3 knots; 1.6 m/s)
Visibility: 10 or more miles (16+ km)
Ceiling: 9000 feet AGL
Clouds: overcast cloud deck at 9000 feet AGL
Weather: automated observation with no human augmentation;
there may or may not be significant weather present at this time

METAR text: KAFF 281058Z AUTO 00000KT 10SM BKN100 OVC150 13/09 A3023 RMK AO2 SLP152 T01310088
Conditions at: KAFF (USAF ACADEMY/COS, CO, US) observed 1058 UTC 28 August 2016
Temperature: 13.1°C (56°F)
Dewpoint: 8.8°C (48°F) [RH = 75%]
Pressure (altimeter): 30.23 inches Hg (1023.8 mb[Sea-level pressure: 1015.2 mb]
Winds: calm
Visibility: 10 or more miles (16+ km)
Ceiling: 10000 feet AGL
Clouds: broken clouds at 10000 feet AGL
overcast cloud deck at 15000 feet AGL
Weather: automated observation with no human augmentation;
there may or may not be significant weather present at this time

METAR text: KAFF 280958Z AUTO 01009KT 10SM BKN150 12/08 A3021 RMK AO2 SLP145 T01180082
Conditions at: KAFF (USAF ACADEMY/COS, CO, US) observed 0958 UTC 28 August 2016
Temperature: 11.8°C (53°F)
Dewpoint: 8.2°C (47°F) [RH = 79%]
Pressure (altimeter): 30.21 inches Hg (1023.1 mb[Sea-level pressure: 1014.5 mb]
Winds: from the N (10 degrees) at 10 MPH (9 knots; 4.7 m/s)
Visibility: 10 or more miles (16+ km)
Ceiling: 15000 feet AGL
Clouds: broken clouds at 15000 feet AGL
Weather: automated observation with no human augmentation;
there may or may not be significant weather present at this time

METAR text: KAFF 280858Z AUTO 03008KT 10SM OVC160 11/08 A3021 RMK AO2 SLP150 T01130081 55002
Conditions at: KAFF (USAF ACADEMY/COS, CO, US) observed 0858 UTC 28 August 2016
Temperature: 11.3°C (52°F)
Dewpoint: 8.1°C (47°F) [RH = 81%]
Pressure (altimeter): 30.21 inches Hg (1023.1 mb[Sea-level pressure: 1015.0 mb]
Winds: from the NNE (30 degrees) at 9 MPH (8 knots; 4.2 m/s)
Visibility: 10 or more miles (16+ km)
Ceiling: 16000 feet AGL
Clouds: overcast cloud deck at 16000 feet AGL
Weather: automated observation with no human augmentation;
there may or may not be significant weather present at this time

METAR text: KAFF 280758Z AUTO 01008KT 10SM OVC150 11/08 A3020 RMK AO2 SLP151 T01120081
Conditions at: KAFF (USAF ACADEMY/COS, CO, US) observed 0758 UTC 28 August 2016
Temperature: 11.2°C (52°F)
Dewpoint: 8.1°C (47°F) [RH = 81%]
Pressure (altimeter): 30.20 inches Hg (1022.8 mb[Sea-level pressure: 1015.1 mb]
Winds: from the N (10 degrees) at 9 MPH (8 knots; 4.2 m/s)
Visibility: 10 or more miles (16+ km)
Ceiling: 15000 feet AGL
Clouds: overcast cloud deck at 15000 feet AGL
Weather: automated observation with no human augmentation;
there may or may not be significant weather present at this time

METAR text: KAFF 280658Z AUTO 07006KT 10SM FEW160 11/08 A3021 RMK AO2 SLP155 T01100083 402550071
Conditions at: KAFF (USAF ACADEMY/COS, CO, US) observed 0658 UTC 28 August 2016
Temperature: 11.0°C (52°F)
Dewpoint: 8.3°C (47°F) [RH = 83%]
Pressure (altimeter): 30.21 inches Hg (1023.1 mb[Sea-level pressure: 1015.5 mb]
Winds: from the ENE (70 degrees) at 7 MPH (6 knots; 3.1 m/s)
Visibility: 10 or more miles (16+ km)
Ceiling: at least 12,000 feet AGL
Clouds: few clouds at 16000 feet AGL
Weather: automated observation with no human augmentation;
there may or may not be significant weather present at this time

METAR text: KAFF 280558Z AUTO 00000KT 10SM FEW170 13/08 A3022 RMK AO2 SLP153 T01330078 10228 20125 50004
Conditions at: KAFF (USAF ACADEMY/COS, CO, US) observed 0558 UTC 28 August 2016
Temperature: 13.3°C (56°F)
Dewpoint: 7.8°C (46°F) [RH = 69%]
Pressure (altimeter): 30.22 inches Hg (1023.5 mb[Sea-level pressure: 1015.3 mb]
Winds: calm
Visibility: 10 or more miles (16+ km)
Ceiling: at least 12,000 feet AGL
Clouds: few clouds at 17000 feet AGL
Weather: automated observation with no human augmentation;
there may or may not be significant weather present at this time

METAR text: KAFF 280458Z AUTO 23003KT 10SM FEW130 16/08 A3024 RMK AO2 SLP155 T01550078
Conditions at: KAFF (USAF ACADEMY/COS, CO, US) observed 0458 UTC 28 August 2016
Temperature: 15.5°C (60°F)
Dewpoint: 7.8°C (46°F) [RH = 60%]
Pressure (altimeter): 30.24 inches Hg (1024.1 mb[Sea-level pressure: 1015.5 mb]
Winds: from the SW (230 degrees) at 3 MPH (3 knots; 1.6 m/s)
Visibility: 10 or more miles (16+ km)
Ceiling: at least 12,000 feet AGL
Clouds: few clouds at 13000 feet AGL
Weather: automated observation with no human augmentation;
there may or may not be significant weather present at this time

METAR text: KAFF 280358Z AUTO 12005KT 10SM FEW130 17/08 A3023 RMK AO2 SLP146 T01690081
Conditions at: KAFF (USAF ACADEMY/COS, CO, US) observed 0358 UTC 28 August 2016
Temperature: 16.9°C (62°F)
Dewpoint: 8.1°C (47°F) [RH = 56%]
Pressure (altimeter): 30.23 inches Hg (1023.8 mb[Sea-level pressure: 1014.6 mb]
Winds: from the ESE (120 degrees) at 6 MPH (5 knots; 2.6 m/s)
Visibility: 10 or more miles (16+ km)
Ceiling: at least 12,000 feet AGL
Clouds: few clouds at 13000 feet AGL
Weather: automated observation with no human augmentation;
there may or may not be significant weather present at this time

METAR text: KAFF 280258Z AUTO 15006KT 10SM CLR 18/08 A3021 RMK AO2 SLP145 T01830080 53016
Conditions at: KAFF (USAF ACADEMY/COS, CO, US) observed 0258 UTC 28 August 2016
Temperature: 18.3°C (65°F)
Dewpoint: 8.0°C (46°F) [RH = 51%]
Pressure (altimeter): 30.21 inches Hg (1023.1 mb[Sea-level pressure: 1014.5 mb]
Winds: from the SSE (150 degrees) at 7 MPH (6 knots; 3.1 m/s)
Visibility: 10 or more miles (16+ km)
Ceiling: at least 12,000 feet AGL
Clouds: sky clear below 12,000 feet AGL
Weather: automated observation with no human augmentation;
there may or may not be significant weather present at this time

METAR text: KAFF 280158Z AUTO 11007KT 10SM CLR 20/07 A3017 RMK AO2 SLP141 T01980068
Conditions at: KAFF (USAF ACADEMY/COS, CO, US) observed 0158 UTC 28 August 2016
Temperature: 19.8°C (68°F)
Dewpoint: 6.8°C (44°F) [RH = 43%]
Pressure (altimeter): 30.17 inches Hg (1021.8 mb[Sea-level pressure: 1014.1 mb]
Winds: from the ESE (110 degrees) at 8 MPH (7 knots; 3.6 m/s)
Visibility: 10 or more miles (16+ km)
Ceiling: at least 12,000 feet AGL
Clouds: sky clear below 12,000 feet AGL
Weather: automated observation with no human augmentation;
there may or may not be significant weather present at this time

METAR text: KAFF 280058Z AUTO 34004KT 10SM OVC130 22/04 A3015 RMK AO2 SLP144 T02210035
Conditions at: KAFF (USAF ACADEMY/COS, CO, US) observed 0058 UTC 28 August 2016
Temperature: 22.1°C (72°F)
Dewpoint: 3.5°C (38°F) [RH = 30%]
Pressure (altimeter): 30.15 inches Hg (1021.1 mb[Sea-level pressure: 1014.4 mb]
Winds: from the NNW (340 degrees) at 5 MPH (4 knots; 2.1 m/s)
Visibility: 10 or more miles (16+ km)
Ceiling: 13000 feet AGL
Clouds: overcast cloud deck at 13000 feet AGL
Weather: automated observation with no human augmentation;
there may or may not be significant weather present at this time

METAR text: KAFF 272358Z AUTO 34005KT 10SM SCT100 BKN130 23/03 A3015 RMK AO2 SLP139 T02280029 10255 20226 53002
Conditions at: KAFF (USAF ACADEMY/COS, CO, US) observed 2358 UTC 27 August 2016
Temperature: 22.8°C (73°F)
Dewpoint: 2.9°C (37°F) [RH = 27%]
Pressure (altimeter): 30.15 inches Hg (1021.1 mb[Sea-level pressure: 1013.9 mb]
Winds: from the NNW (340 degrees) at 6 MPH (5 knots; 2.6 m/s)
Visibility: 10 or more miles (16+ km)
Ceiling: 13000 feet AGL
Clouds: scattered clouds at 10000 feet AGL
broken clouds at 13000 feet AGL
Weather: automated observation with no human augmentation;
there may or may not be significant weather present at this time

METAR text: KAFF 272258Z AUTO 33006KT 10SM BKN100 OVC120 24/02 A3014 RMK AO2 SLP135 T02380018
Conditions at: KAFF (USAF ACADEMY/COS, CO, US) observed 2258 UTC 27 August 2016
Temperature: 23.8°C (75°F)
Dewpoint: 1.8°C (35°F) [RH = 24%]
Pressure (altimeter): 30.14 inches Hg (1020.7 mb[Sea-level pressure: 1013.5 mb]
Winds: from the NNW (330 degrees) at 7 MPH (6 knots; 3.1 m/s)
Visibility: 10 or more miles (16+ km)
Ceiling: 10000 feet AGL
Clouds: broken clouds at 10000 feet AGL
overcast cloud deck at 12000 feet AGL
Weather: automated observation with no human augmentation;
there may or may not be significant weather present at this time

METAR text: KAFF 272158Z AUTO VRB01KT 10SM SCT130 25/01 A3013 RMK AO2 SLP127 T02520010
Conditions at: KAFF (USAF ACADEMY/COS, CO, US) observed 2158 UTC 27 August 2016
Temperature: 25.2°C (77°F)
Dewpoint: 1.0°C (34°F) [RH = 20%]
Pressure (altimeter): 30.13 inches Hg (1020.4 mb[Sea-level pressure: 1012.7 mb]
Winds: variable direction winds at 1 MPH (1 knots; 0.5 m/s)
Visibility: 10 or more miles (16+ km)
Ceiling: at least 12,000 feet AGL
Clouds: scattered clouds at 13000 feet AGL
Weather: automated observation with no human augmentation;
there may or may not be significant weather present at this time

METAR text: KAFF 272058Z AUTO 18006KT 10SM SCT110 BKN130 25/01 A3014 RMK AO2 SLP130 T02510013 57012
Conditions at: KAFF (USAF ACADEMY/COS, CO, US) observed 2058 UTC 27 August 2016
Temperature: 25.1°C (77°F)
Dewpoint: 1.3°C (34°F) [RH = 21%]
Pressure (altimeter): 30.14 inches Hg (1020.7 mb[Sea-level pressure: 1013.0 mb]
Winds: from the S (180 degrees) at 7 MPH (6 knots; 3.1 m/s)
Visibility: 10 or more miles (16+ km)
Ceiling: 13000 feet AGL
Clouds: scattered clouds at 11000 feet AGL
broken clouds at 13000 feet AGL
Weather: automated observation with no human augmentation;
there may or may not be significant weather present at this time